Time;durP1;ratioP1;P1;durP2;ratioP2;P2;SDS_P1;SDS_P2;PMS_P1;PMS_P2;Temp;Humidity;BMP_temperature;BMP_pressure;BME280_temperature;BME280_humidity;BME280_pressure;Samples;Min_cycle;Max_cycle;Signal;HPM_P1;HPM_P2
2020/12/30 00:02:01;;;;;;;38.23;20.10;;;;;;;1.79;67.47;95860.86;1710607;81;21172;-83
2020/12/30 00:05:37;;;;;;;38.42;19.65;;;;;;;1.81;67.56;95855.07;1608095;83;21270;31
2020/12/30 00:08:26;;;;;;;54.98;24.18;;;;;;;1.86;67.46;95863.34;1588120;89;21458;-85
2020/12/30 00:14:51;;;;;;;92.50;36.43;;;;;;;1.78;67.76;95858.73;1695371;82;21148;-85
2020/12/30 00:17:21;;;;;;;138.88;51.98;;;;;;;1.78;67.93;95865.22;1702631;83;21167;-83
2020/12/30 00:20:17;;;;;;;115.95;46.58;;;;;;;1.81;67.91;95868.05;1714131;78;21259;-85
2020/12/30 00:23:17;;;;;;;62.15;28.70;;;;;;;1.83;67.83;95877.36;1698575;82;21954;-85
2020/12/30 00:25:49;;;;;;;42.33;19.50;;;;;;;1.91;67.85;95885.91;1704727;84;21121;-85
2020/12/30 00:28:27;;;;;;;23.25;11.70;;;;;;;1.95;67.95;95901.59;1721567;79;21319;-82
2020/12/30 00:31:46;;;;;;;19.32;9.05;;;;;;;2.02;68.24;95903.30;1700158;79;21094;-84
2020/12/30 00:34:15;;;;;;;15.30;8.20;;;;;;;2.14;68.79;95895.89;1739580;82;21609;-84
2020/12/30 00:36:45;;;;;;;13.20;6.37;;;;;;;2.28;69.05;95900.05;1741701;80;21445;-84
2020/12/30 00:39:56;;;;;;;14.13;7.03;;;;;;;2.46;69.15;95899.13;1740318;79;21528;-84
2020/12/30 00:42:50;;;;;;;18.20;9.60;;;;;;;2.64;69.03;95899.03;1740086;82;21075;-86
2020/12/30 00:49:00;;;;;;;19.55;10.60;;;;;;;2.96;68.62;95897.84;1759788;79;21158;-84
2020/12/30 00:55:29;;;;;;;18.17;10.60;;;;;;;3.20;67.79;95885.54;1667318;80;21304;-84
2020/12/30 00:58:46;;;;;;;;;;;;;;;3.36;67.90;95885.61;1672748;83;21083;-84
2020/12/30 01:01:42;;;;;;;10.33;4.77;;;;;;;3.52;67.74;95882.63;1690705;80;20430;31
2020/12/30 01:04:52;;;;;;;7.92;4.08;;;;;;;3.64;67.60;95885.06;1616578;88;21087;-86
2020/12/30 01:11:04;;;;;;;9.30;4.25;;;;;;;3.94;67.04;95879.61;1742232;78;21182;-85
2020/12/30 01:13:34;;;;;;;14.10;9.25;;;;;;;4.07;66.78;95869.01;1748156;82;21111;-84
2020/12/30 01:16:08;;;;;;;21.68;13.58;;;;;;;4.15;66.66;95859.63;1749440;82;21237;-86
2020/12/30 01:19:17;;;;;;;24.43;12.60;;;;;;;4.26;66.53;95858.70;1743859;79;21109;-86
2020/12/30 01:21:47;;;;;;;23.92;13.00;;;;;;;4.37;66.22;95859.94;1759846;78;21376;-83
2020/12/30 01:24:22;;;;;;;20.20;11.80;;;;;;;4.47;65.93;95849.58;1764185;78;21106;-85
2020/12/30 01:31:28;;;;;;;21.12;13.48;;;;;;;4.67;65.38;95863.04;1734426;82;21213;-85
2020/12/30 01:34:08;;;;;;;27.35;16.23;;;;;;;4.78;65.16;95860.83;1791918;79;21101;-83
2020/12/30 01:37:27;;;;;;;21.75;14.23;;;;;;;4.87;64.96;95868.36;1689254;82;21102;-84
2020/12/30 01:39:59;;;;;;;16.32;11.40;;;;;;;4.98;64.52;95863.88;1713597;83;21100;-85
2020/12/30 01:42:50;;;;;;;18.45;12.10;;;;;;;5.05;64.23;95865.47;1704109;81;21230;-85
2020/12/30 01:45:53;;;;;;;12.10;7.03;;;;;;;5.10;63.96;95865.91;1644845;83;21152;-86
2020/12/30 01:48:24;;;;;;;11.55;6.22;;;;;;;5.14;63.67;95862.05;1664135;86;21108;-84
2020/12/30 01:50:59;;;;;;;15.58;10.13;;;;;;;5.18;63.53;95862.14;1665032;83;22129;-83
2020/12/30 01:54:16;;;;;;;22.95;15.85;;;;;;;5.20;63.26;95860.20;1554028;88;21445;-85
2020/12/30 01:56:45;;;;;;;20.52;11.80;;;;;;;5.15;63.18;95859.78;1688694;84;21187;-85
2020/12/30 01:59:20;;;;;;;19.40;12.73;;;;;;;5.09;63.15;95856.40;1694941;82;21104;-85
2020/12/30 02:02:29;;;;;;;17.75;10.03;;;;;;;5.02;63.13;95846.16;1667059;82;21112;-84
2020/12/30 02:05:00;;;;;;;15.43;8.03;;;;;;;4.87;63.17;95838.36;1635504;87;21327;-86
2020/12/30 02:11:09;;;;;;;13.28;7.55;;;;;;;4.53;63.02;95839.45;1624567;84;21184;-84
2020/12/30 02:13:41;;;;;;;11.15;5.80;;;;;;;4.22;63.03;95834.70;1622758;85;21202;-85
2020/12/30 02:19:53;;;;;;;18.98;10.03;;;;;;;3.75;63.94;95844.66;1680143;81;21193;-85
2020/12/30 02:22:21;;;;;;;21.00;10.23;;;;;;;3.56;64.48;95856.23;1679051;84;21121;-85
2020/12/30 02:25:27;;;;;;;21.20;10.28;;;;;;;3.43;64.76;95843.83;1724358;79;21428;31
2020/12/30 02:28:35;;;;;;;26.10;14.00;;;;;;;3.30;65.09;95847.06;1719473;80;21163;-83
2020/12/30 02:31:04;;;;;;;28.50;14.38;;;;;;;3.16;65.61;95859.88;1731598;82;21172;-84
2020/12/30 02:33:47;;;;;;;32.08;16.32;;;;;;;3.08;65.89;95863.06;1732098;82;21202;-82
2020/12/30 02:36:57;;;;;;;37.35;19.48;;;;;;;3.02;66.12;95863.55;1754782;76;21113;-85
2020/12/30 02:39:29;;;;;;;26.57;14.45;;;;;;;2.97;66.45;95873.98;1747627;76;21074;-84
2020/12/30 02:45:34;;;;;;;21.12;9.43;;;;;;;2.89;66.94;95877.16;1744606;80;21052;-86
2020/12/30 02:48:05;;;;;;;17.90;8.53;;;;;;;2.83;67.22;95877.64;1747488;82;21235;-85
2020/12/30 02:53:54;;;;;;;15.05;7.20;;;;;;;2.79;67.46;95864.06;1668401;83;21055;-84
2020/12/30 02:56:23;;;;;;;16.97;9.48;;;;;;;2.79;67.42;95853.67;1699754;84;21118;-84
2020/12/30 03:02:37;;;;;;;19.23;8.73;;;;;;;2.78;67.28;95861.56;1786008;79;21546;-86
2020/12/30 03:05:57;;;;;;;23.35;12.33;;;;;;;2.67;67.41;95841.63;1745973;77;21151;31
2020/12/30 03:09:08;;;;;;;13.75;7.40;;;;;;;2.57;67.75;95841.97;1711512;80;21097;-85
2020/12/30 03:11:39;;;;;;;17.45;7.85;;;;;;;2.55;68.23;95834.30;1718141;83;21204;-84
2020/12/30 03:14:54;;;;;;;13.45;7.33;;;;;;;2.62;68.40;95832.05;1718224;80;21192;-83
2020/12/30 03:18:02;;;;;;;14.33;8.23;;;;;;;2.64;68.29;95806.76;1693059;83;21176;-84
2020/12/30 03:24:12;;;;;;;16.90;8.23;;;;;;;2.66;68.57;95801.78;1720465;79;23617;-84
2020/12/30 03:26:41;;;;;;;13.18;7.58;;;;;;;2.64;68.73;95803.69;1757384;81;21069;-84
2020/12/30 03:29:11;;;;;;;20.52;10.55;;;;;;;2.61;68.88;95802.64;1749289;80;21036;-84
2020/12/30 03:32:20;;;;;;;15.43;7.87;;;;;;;2.65;68.88;95801.91;1748716;82;21077;-84
2020/12/30 03:34:49;;;;;;;17.25;9.30;;;;;;;2.56;69.00;95806.06;1748252;80;21155;-83
2020/12/30 03:37:18;;;;;;;19.70;9.45;;;;;;;2.58;69.08;95805.94;1741622;80;21552;-84
2020/12/30 03:39:49;;;;;;;23.32;10.85;;;;;;;2.57;69.01;95807.71;1741167;82;21063;-85
2020/12/30 03:42:30;;;;;;;54.00;20.65;;;;;;;2.54;69.09;95803.21;1749646;82;21070;-85
2020/12/30 03:45:40;;;;;;;59.93;22.40;;;;;;;2.50;69.33;95803.12;1739832;82;21077;-84
2020/12/30 03:48:18;;;;;;;49.23;19.70;;;;;;;2.54;69.58;95802.73;1746896;82;21573;-84
2020/12/30 03:51:39;;;;;;;46.18;20.02;;;;;;;2.64;69.53;95809.36;1749709;82;21051;-85
2020/12/30 03:54:48;;;;;;;42.20;16.27;;;;;;;2.73;69.26;95804.75;1746916;82;21154;-83
2020/12/30 03:57:20;;;;;;;44.63;17.23;;;;;;;2.75;68.98;95791.63;1748184;82;21136;-84
2020/12/30 04:00:29;;;;;;;39.42;16.07;;;;;;;2.66;69.00;95796.58;1749894;82;21198;-85
2020/12/30 04:02:58;;;;;;;34.63;15.15;;;;;;;2.62;69.20;95791.77;1747164;82;21218;-83
2020/12/30 04:05:27;;;;;;;47.53;19.82;;;;;;;2.61;69.28;95800.04;1747323;82;21061;-83
2020/12/30 04:07:59;;;;;;;48.23;18.90;;;;;;;2.59;69.40;95800.61;1746942;81;21147;-84
2020/12/30 04:10:29;;;;;;;59.80;22.62;;;;;;;2.59;69.47;95804.98;1746914;82;21054;-86
2020/12/30 04:12:59;;;;;;;64.47;25.40;;;;;;;2.54;69.65;95794.12;1747238;82;21421;-83
2020/12/30 04:15:28;;;;;;;66.42;25.20;;;;;;;2.52;69.81;95793.42;1746941;82;21098;-84
2020/12/30 04:17:56;;;;;;;54.42;21.75;;;;;;;2.53;69.88;95792.00;1746791;82;21119;-84
2020/12/30 04:20:25;;;;;;;43.58;17.82;;;;;;;2.48;69.93;95788.92;1744856;82;21146;-84
2020/12/30 04:22:54;;;;;;;48.08;17.73;;;;;;;2.50;69.98;95792.73;1747187;82;21123;-84
2020/12/30 04:25:23;;;;;;;41.30;16.73;;;;;;;2.47;70.06;95789.88;1747136;82;21384;-82
2020/12/30 04:27:54;;;;;;;33.65;13.50;;;;;;;2.43;70.26;95794.94;1727215;83;21164;-85
2020/12/30 04:30:26;;;;;;;26.55;10.15;;;;;;;2.38;70.35;95796.63;1745402;82;21111;-85
2020/12/30 04:32:57;;;;;;;16.77;8.45;;;;;;;2.35;70.57;95782.55;1727487;83;21225;-86
2020/12/30 04:35:35;;;;;;;16.48;8.48;;;;;;;2.35;70.76;95779.95;1745408;82;21158;-84
2020/12/30 04:38:06;;;;;;;16.50;7.97;;;;;;;2.41;70.75;95770.86;1698061;84;21222;-85
2020/12/30 04:40:36;;;;;;;17.55;8.90;;;;;;;2.47;70.72;95779.95;1740368;81;21130;-84
2020/12/30 04:43:05;;;;;;;21.33;9.25;;;;;;;2.45;70.67;95786.58;1718602;82;21198;-85
2020/12/30 04:45:36;;;;;;;15.50;8.38;;;;;;;2.45;70.80;95783.98;1740173;82;21604;-85
2020/12/30 04:48:05;;;;;;;14.20;7.15;;;;;;;2.48;70.77;95784.20;1740168;82;21603;-85
2020/12/30 04:50:35;;;;;;;15.08;7.35;;;;;;;2.54;70.82;95781.95;1740280;82;21282;-85
2020/12/30 04:53:04;;;;;;;20.25;9.35;;;;;;;2.63;70.80;95786.92;1740700;82;21127;-84
2020/12/30 04:55:35;;;;;;;34.10;16.85;;;;;;;2.74;70.70;95792.58;1719517;82;21119;-83
2020/12/30 04:58:08;;;;;;;29.23;14.13;;;;;;;2.82;70.38;95792.80;1722177;83;21125;-84
2020/12/30 05:04:52;;;;;;;30.60;14.13;;;;;;;2.84;69.99;95780.48;1695363;80;21222;-83
2020/12/30 05:12:19;;;;;;;35.13;16.67;;;;;;;2.80;70.00;95781.22;1702596;78;21158;-84
2020/12/30 19:14:36;;;;;;;62.88;33.98;;;;;;;6.61;70.01;95597.76;1673478;81;21251;-84
2020/12/30 19:27:10;;;;;;;56.20;32.40;;;;;;;6.92;69.87;95617.83;1762074;77;26212;31
2020/12/30 20:13:04;;;;;;;31.15;19.73;;;;;;;7.67;69.13;95611.69;1692018;83;21166;-86
2020/12/30 20:15:55;;;;;;;36.45;23.40;;;;;;;7.82;68.57;95616.66;1688311;83;21221;-87
2020/12/30 20:19:06;;;;;;;38.43;22.93;;;;;;;7.89;68.29;95624.75;1694920;83;21162;-86
2020/12/30 20:26:35;;;;;;;42.50;24.50;;;;;;;8.01;67.83;95635.30;1726762;79;22755;31
2020/12/30 20:29:27;;;;;;;42.62;23.30;;;;;;;8.06;67.69;95632.19;1667096;83;21262;-86
2020/12/30 20:32:03;;;;;;;39.90;23.75;;;;;;;8.14;67.49;95642.23;1660135;86;21216;-85
2020/12/30 20:34:49;;;;;;;44.13;24.30;;;;;;;8.18;67.36;95637.02;1651780;86;21296;-86
2020/12/30 20:37:47;;;;;;;48.17;26.02;;;;;;;8.22;67.08;95640.13;1654402;85;21145;-86
2020/12/30 20:40:21;;;;;;;43.90;25.90;;;;;;;8.20;67.16;95645.54;1658670;86;21109;-84
2020/12/30 20:53:40;;;;;;;47.45;25.55;;;;;;;8.41;66.81;95648.27;1646268;82;21091;-86
2020/12/30 20:56:52;;;;;;;44.83;23.92;;;;;;;8.50;66.49;95641.59;1638402;85;21150;-85
2020/12/30 20:59:43;;;;;;;39.20;24.70;;;;;;;8.60;66.20;95641.92;1645036;85;21230;-86
2020/12/30 21:29:25;;;;;;;38.92;21.50;;;;;;;8.44;67.16;95638.78;1640128;81;22976;-81
2020/12/30 22:50:38;;;;;;;22.80;10.40;;;;;;;8.34;68.48;95651.16;1650142;82;20791;31
2020/12/30 22:54:44;;;;;;;18.20;11.15;;;;;;;8.24;68.69;95644.72;1549311;87;21361;31
2020/12/30 23:05:23;;;;;;;32.55;20.23;;;;;;;8.29;69.07;95669.98;1620691;80;21266;-84
2020/12/30 23:13:20;;;;;;;28.42;16.05;;;;;;;8.25;69.04;95659.02;1675446;81;21236;-86
2020/12/30 23:16:39;;;;;;;27.95;17.25;;;;;;;8.21;68.97;95648.49;1717610;78;21107;-85
2020/12/30 23:20:08;;;;;;;21.55;12.50;;;;;;;8.13;69.15;95651.58;1781768;78;21112;-85
2020/12/30 23:23:25;;;;;;;15.32;8.90;;;;;;;8.11;69.26;95643.84;1773024;78;21262;-85
2020/12/30 23:26:35;;;;;;;11.43;7.05;;;;;;;8.11;69.34;95642.53;1751055;78;21423;-84
2020/12/30 23:29:47;;;;;;;13.72;7.78;;;;;;;8.16;69.33;95635.52;1731593;80;21034;-85
2020/12/30 23:33:00;;;;;;;23.95;14.90;;;;;;;8.20;69.15;95632.92;1749063;79;21071;-85
2020/12/30 23:36:14;;;;;;;19.35;11.18;;;;;;;8.19;69.08;95634.73;1770615;79;21105;-86
2020/12/30 23:39:48;;;;;;;20.10;11.97;;;;;;;8.18;69.06;95631.78;1719304;79;22998;31
2020/12/30 23:43:20;;;;;;;19.52;12.10;;;;;;;8.18;69.12;95623.91;1742462;77;21149;-87
2020/12/30 23:58:46;;;;;;;18.80;10.77;;;;;;;8.11;69.25;95632.54;1700715;78;21231;31
